createdAt,value
2022-10-22T00:00:30.114Z,96.69
2022-10-22T00:01:30.145Z,96.48
2022-10-22T00:02:30.157Z,96.48
2022-10-22T00:03:30.064Z,96.48
2022-10-22T00:04:34.421Z,96.28
2022-10-22T00:05:30.086Z,96.28
2022-10-22T00:06:30.202Z,96.58
2022-10-22T00:07:30.106Z,96.38
2022-10-22T00:08:30.055Z,96.48
2022-10-22T00:09:30.110Z,96.58
2022-10-22T00:10:30.125Z,96.69
2022-10-22T00:11:29.999Z,96.69
2022-10-22T00:12:30.040Z,96.69
2022-10-22T00:13:29.968Z,96.69
2022-10-22T00:14:29.981Z,96.89
2022-10-22T00:15:30.027Z,96.69
2022-10-22T00:16:29.965Z,96.89
2022-10-22T00:17:29.947Z,96.73
2022-10-22T00:18:29.923Z,97.24
2022-10-22T00:19:29.954Z,97.54
2022-10-22T00:20:29.912Z,97.44
2022-10-22T00:21:29.845Z,97.64
2022-10-22T00:22:29.877Z,97.34
2022-10-22T00:23:29.912Z,97.03
2022-10-22T00:24:29.863Z,97.24
2022-10-22T00:25:29.894Z,97.34
2022-10-22T00:26:29.822Z,97.24
2022-10-22T00:27:29.853Z,97.34
2022-10-22T00:28:29.894Z,97.44
2022-10-22T00:29:29.883Z,97.24
2022-10-22T00:30:29.788Z,97.14
2022-10-22T00:31:29.785Z,97.09
2022-10-22T00:32:29.922Z,97.19
2022-10-22T00:33:29.872Z,97.14
2022-10-22T00:34:29.753Z,97.29
2022-10-22T00:35:29.731Z,97.19
2022-10-22T00:36:29.750Z,97.34
2022-10-22T00:37:29.785Z,97.44
2022-10-22T00:38:29.758Z,97.39
2022-10-22T00:39:29.803Z,97.54
2022-10-22T00:40:29.667Z,97.54
2022-10-22T00:41:29.704Z,97.64
2022-10-22T00:42:29.651Z,97.54
2022-10-22T00:43:29.852Z,97.34
2022-10-22T00:44:29.684Z,97.54
2022-10-22T00:45:29.657Z,97.03
2022-10-22T00:46:29.783Z,97.19
2022-10-22T00:47:29.651Z,97.14
2022-10-22T00:48:29.608Z,96.78
2022-10-22T00:49:29.662Z,96.38
2022-10-22T00:50:29.644Z,96.42
2022-10-22T00:51:29.700Z,96.38
2022-10-22T00:52:29.657Z,96.48
2022-10-22T00:53:29.591Z,96.38
2022-10-22T00:54:29.588Z,96.38
2022-10-22T00:55:29.604Z,96.18
2022-10-22T00:56:29.555Z,96.08
2022-10-22T00:57:29.580Z,95.87
2022-10-22T00:58:29.489Z,95.67
2022-10-22T00:59:29.484Z,95.57
2022-10-22T01:00:29.685Z,95.67
2022-10-22T01:01:29.578Z,95.67
2022-10-22T01:02:29.586Z,95.78
2022-10-22T01:03:29.542Z,95.78
2022-10-22T01:04:29.553Z,95.87
2022-10-22T01:05:29.436Z,96.08
2022-10-22T01:06:29.528Z,95.98
2022-10-22T01:07:29.433Z,96.28
2022-10-22T01:08:29.648Z,95.87
2022-10-22T01:09:29.404Z,96.08
2022-10-22T01:10:29.383Z,96.33
2022-10-22T01:11:29.493Z,96.42
2022-10-22T01:12:29.460Z,96.42
2022-10-22T01:13:29.416Z,96.22
2022-10-22T01:14:29.372Z,96.22
2022-10-22T01:15:29.313Z,96.22
2022-10-22T01:16:29.345Z,96.12
2022-10-22T01:17:29.309Z,96.33
2022-10-22T01:18:29.405Z,96.33
2022-10-22T01:19:29.358Z,96.22
2022-10-22T01:20:29.361Z,96.53
2022-10-22T01:21:29.329Z,96.53
2022-10-22T01:22:29.312Z,96.53
2022-10-22T01:23:29.296Z,96.22
2022-10-22T01:24:29.295Z,96.12
2022-10-22T01:25:29.499Z,96.22
2022-10-22T01:26:29.249Z,96.53
2022-10-22T01:27:29.286Z,96.53
2022-10-22T01:28:29.236Z,96.53
2022-10-22T01:29:29.231Z,96.73
2022-10-22T01:30:29.219Z,96.73
2022-10-22T01:31:29.172Z,96.53
2022-10-22T01:32:29.202Z,96.53
2022-10-22T01:33:29.791Z,96.33
2022-10-22T01:34:29.168Z,96.22
2022-10-22T01:35:29.277Z,96.42
2022-10-22T01:36:29.193Z,96.33
2022-10-22T01:37:29.202Z,96.33
2022-10-22T01:38:29.095Z,96.33
2022-10-22T01:39:29.159Z,96.42
2022-10-22T01:40:29.140Z,96.42
2022-10-22T01:41:29.165Z,96.02
2022-10-22T01:42:29.112Z,95.82
2022-10-22T01:43:29.044Z,96.02
2022-10-22T01:44:29.147Z,96.02
2022-10-22T01:45:29.025Z,95.51
2022-10-22T01:46:29.042Z,95.51
2022-10-22T01:47:29.096Z,95.51
2022-10-22T01:48:29.112Z,95.51
2022-10-22T01:49:29.010Z,95.51
2022-10-22T01:50:29.110Z,95.72
2022-10-22T01:51:29.008Z,95.72
2022-10-22T01:52:29.039Z,95.62
2022-10-22T01:53:29.133Z,95.51
2022-10-22T01:54:28.946Z,95.62
2022-10-22T01:55:28.962Z,95.51
2022-10-22T01:56:28.929Z,95.51
2022-10-22T01:57:28.929Z,95.51
2022-10-22T01:58:29.009Z,95.62
2022-10-22T01:59:28.938Z,95.51
2022-10-22T02:00:28.996Z,95.42
2022-10-22T02:01:28.930Z,95.21
2022-10-22T02:02:28.885Z,95.31
2022-10-22T02:03:28.984Z,95.07
2022-10-22T02:04:28.950Z,95.27
2022-10-22T02:05:28.861Z,95.37
2022-10-22T02:06:28.913Z,94.81
2022-10-22T02:07:28.866Z,94.76
2022-10-22T02:08:28.893Z,95.01
2022-10-22T02:09:28.820Z,95.21
2022-10-22T02:10:28.802Z,95.11
2022-10-22T02:11:28.816Z,95.17
2022-10-22T02:12:28.861Z,95.11
2022-10-22T02:13:28.747Z,95.21
2022-10-22T02:14:28.772Z,95.11
2022-10-22T02:15:28.779Z,95.31
2022-10-22T02:16:28.744Z,95.21
2022-10-22T02:17:28.749Z,94.86
2022-10-22T02:18:28.732Z,94.91
2022-10-22T02:19:28.692Z,94.91
2022-10-22T02:20:28.688Z,94.71
2022-10-22T02:21:28.675Z,94.40
2022-10-22T02:22:28.757Z,94.40
2022-10-22T02:23:28.685Z,94.36
2022-10-22T02:24:28.648Z,94.40
2022-10-22T02:25:28.634Z,94.46
2022-10-22T02:26:28.621Z,94.30
2022-10-22T02:27:28.645Z,93.95
2022-10-22T02:28:28.627Z,93.65
2022-10-22T02:29:28.665Z,93.39
2022-10-22T02:30:28.639Z,93.15
2022-10-22T02:31:28.567Z,93.49
2022-10-22T02:32:28.560Z,93.49
2022-10-22T02:33:28.566Z,93.49
2022-10-22T02:34:28.532Z,93.39
2022-10-22T02:35:28.566Z,93.35
2022-10-22T02:36:28.501Z,93.59
2022-10-22T02:37:28.569Z,93.65
2022-10-22T02:38:28.574Z,93.55
2022-10-22T02:39:28.591Z,93.24
2022-10-22T02:40:28.535Z,93.19
2022-10-22T02:41:28.500Z,93.08
2022-10-22T02:42:28.481Z,93.49
2022-10-22T02:43:28.452Z,93.39
2022-10-22T02:44:28.453Z,92.79
2022-10-22T02:45:28.466Z,92.99
2022-10-22T02:46:28.523Z,93.49
2022-10-22T02:47:28.472Z,93.59
2022-10-22T02:48:28.447Z,92.88
2022-10-22T02:49:28.404Z,92.68
2022-10-22T02:50:28.404Z,92.99
2022-10-22T02:51:28.430Z,92.99
2022-10-22T02:52:28.369Z,92.99
2022-10-22T02:53:28.466Z,92.79
2022-10-22T02:54:28.356Z,92.88
2022-10-22T02:55:28.337Z,93.19
2022-10-22T02:56:28.376Z,92.88
2022-10-22T02:57:28.320Z,92.79
2022-10-22T02:58:28.347Z,92.68
2022-10-22T02:59:28.409Z,92.68
2022-10-22T03:00:28.334Z,92.68
2022-10-22T03:01:28.339Z,92.58
2022-10-22T03:02:28.261Z,92.48
2022-10-22T03:03:28.323Z,92.48
2022-10-22T03:04:28.222Z,92.58
2022-10-22T03:05:28.252Z,92.68
2022-10-22T03:06:28.237Z,92.68
2022-10-22T03:07:28.218Z,92.79
2022-10-22T03:08:28.273Z,92.99
2022-10-22T03:09:28.242Z,93.39
2022-10-22T03:10:28.214Z,92.88
2022-10-22T03:11:28.156Z,92.79
2022-10-22T03:12:28.190Z,93.19
2022-10-22T03:13:28.197Z,93.79
2022-10-22T03:14:28.120Z,93.79
2022-10-22T03:16:28.102Z,93.49
2022-10-22T03:17:28.161Z,93.70
2022-10-22T03:18:28.139Z,92.99
2022-10-22T03:19:28.116Z,92.79
2022-10-22T03:20:28.089Z,93.08
2022-10-22T03:21:28.084Z,92.68
2022-10-22T03:22:28.048Z,92.58
2022-10-22T03:23:28.137Z,92.38
2022-10-22T03:24:28.038Z,92.58
2022-10-22T03:25:28.076Z,92.58
2022-10-22T03:26:28.050Z,92.58
2022-10-22T03:27:28.010Z,92.68
2022-10-22T03:28:28.023Z,92.74
2022-10-22T03:29:28.014Z,92.08
2022-10-22T03:30:28.015Z,91.57
2022-10-22T03:31:28.012Z,92.08
2022-10-22T03:32:27.990Z,92.38
2022-10-22T03:33:27.942Z,91.53
2022-10-22T03:34:27.975Z,91.87
2022-10-22T03:35:28.005Z,92.03
2022-10-22T03:36:27.955Z,92.03
2022-10-22T03:37:27.867Z,91.87
2022-10-22T03:38:27.983Z,91.97
2022-10-22T03:39:27.935Z,92.13
2022-10-22T03:40:27.902Z,92.13
2022-10-22T03:41:27.922Z,92.44
2022-10-22T03:42:27.930Z,92.13
2022-10-22T03:43:27.905Z,92.13
2022-10-22T03:44:27.823Z,91.83
2022-10-22T03:45:27.975Z,91.63
2022-10-22T03:46:27.836Z,91.32
2022-10-22T03:47:27.825Z,91.73
2022-10-22T03:48:27.849Z,92.74
2022-10-22T03:49:27.802Z,93.15
2022-10-22T03:50:27.802Z,92.64
2022-10-22T03:51:27.776Z,92.13
2022-10-22T03:52:27.797Z,92.58
2022-10-22T03:53:27.821Z,93.08
2022-10-22T03:54:27.782Z,93.39
2022-10-22T03:55:27.827Z,93.49
2022-10-22T03:56:27.747Z,93.49
2022-10-22T03:57:27.721Z,93.79
2022-10-22T03:58:27.731Z,94.00
2022-10-22T03:59:27.740Z,94.30
2022-10-22T04:00:27.671Z,93.90
2022-10-22T04:01:27.741Z,92.88
2022-10-22T04:02:27.660Z,92.99
2022-10-22T04:03:27.715Z,92.48
2022-10-22T04:04:27.717Z,92.58
2022-10-22T04:05:27.635Z,92.68
2022-10-22T04:06:27.610Z,92.58
2022-10-22T04:07:27.708Z,92.33
2022-10-22T04:08:27.623Z,92.03
2022-10-22T04:09:27.583Z,92.13
2022-10-22T04:10:27.589Z,92.44
2022-10-22T04:11:27.621Z,92.24
2022-10-22T04:12:27.566Z,92.03
2022-10-22T04:13:27.553Z,92.03
2022-10-22T04:14:27.598Z,92.03
2022-10-22T04:15:27.546Z,91.63
2022-10-22T04:16:30.003Z,92.13
2022-10-22T04:17:27.513Z,92.03
2022-10-22T04:18:27.509Z,91.63
2022-10-22T04:19:27.614Z,91.83
2022-10-22T04:20:27.499Z,91.12
2022-10-22T04:21:27.525Z,91.22
2022-10-22T04:22:27.532Z,91.83
2022-10-22T04:23:27.445Z,91.73
2022-10-22T04:24:27.462Z,91.53
2022-10-22T04:25:27.525Z,91.73
2022-10-22T04:26:27.431Z,91.42
2022-10-22T04:27:27.490Z,90.82
2022-10-22T04:28:27.394Z,91.12
2022-10-22T04:29:27.407Z,91.12
2022-10-22T04:30:27.453Z,91.53
2022-10-22T04:31:27.407Z,92.03
2022-10-22T04:32:27.411Z,91.53
2022-10-22T04:33:27.401Z,91.93
2022-10-22T04:34:27.329Z,91.42
2022-10-22T04:35:27.384Z,91.53
2022-10-22T04:36:27.343Z,91.53
2022-10-22T04:37:27.404Z,91.53
2022-10-22T04:38:27.503Z,91.02
2022-10-22T04:39:27.327Z,91.22
2022-10-22T04:40:27.323Z,90.72
2022-10-22T04:41:27.298Z,91.12
2022-10-22T04:42:27.190Z,91.12
2022-10-22T04:43:27.279Z,91.02
2022-10-22T04:44:27.236Z,91.02
2022-10-22T04:45:27.248Z,91.22
2022-10-22T04:46:27.285Z,90.92
2022-10-22T04:47:27.226Z,91.02
2022-10-22T04:48:27.217Z,90.31
2022-10-22T04:49:27.253Z,90.52
2022-10-22T04:50:27.220Z,90.92
2022-10-22T04:51:27.166Z,90.62
2022-10-22T04:52:27.206Z,90.21
2022-10-22T04:53:27.140Z,90.21
2022-10-22T04:54:30.470Z,90.41
2022-10-22T04:55:27.176Z,90.52
2022-10-22T04:56:27.118Z,90.62
2022-10-22T04:57:27.117Z,90.31
2022-10-22T04:58:27.154Z,90.52
2022-10-22T04:59:27.118Z,90.62
2022-10-22T05:00:27.078Z,90.01
2022-10-22T05:01:27.157Z,89.61
2022-10-22T05:02:27.102Z,89.91
2022-10-22T05:03:27.023Z,89.81
2022-10-22T05:04:27.050Z,89.50
2022-10-22T05:05:27.023Z,89.70
2022-10-22T05:06:27.018Z,89.30
2022-10-22T05:07:27.024Z,89.40
2022-10-22T05:08:27.072Z,89.40
2022-10-22T05:09:27.095Z,88.79
2022-10-22T05:10:27.059Z,89.40
2022-10-22T05:11:27.013Z,89.00
2022-10-22T05:12:26.965Z,88.59
2022-10-22T05:13:26.961Z,88.70
2022-10-22T05:14:26.928Z,89.00
2022-10-22T05:15:26.929Z,89.00
2022-10-22T05:16:26.945Z,87.99
2022-10-22T05:17:26.917Z,87.58
2022-10-22T05:18:26.880Z,88.39
2022-10-22T05:19:26.912Z,87.58
2022-10-22T05:20:26.949Z,87.58
2022-10-22T05:21:26.889Z,87.88
2022-10-22T05:22:26.850Z,87.68
2022-10-22T05:23:26.840Z,87.28
2022-10-22T05:24:26.904Z,87.99
2022-10-22T05:25:26.877Z,87.48
2022-10-22T05:26:26.847Z,87.42
2022-10-22T05:27:26.887Z,88.33
2022-10-22T05:28:26.796Z,87.82
2022-10-22T05:29:26.784Z,88.13
2022-10-22T05:30:26.804Z,88.53
2022-10-22T05:31:26.719Z,87.52
2022-10-22T05:32:26.802Z,88.02
2022-10-22T05:33:26.748Z,87.82
2022-10-22T05:34:26.813Z,88.09
2022-10-22T05:35:26.712Z,87.52
2022-10-22T05:36:26.728Z,87.62
2022-10-22T05:37:26.727Z,88.33
2022-10-22T05:38:26.697Z,87.82
2022-10-22T05:39:26.621Z,87.62
2022-10-22T05:40:31.216Z,88.13
2022-10-22T05:41:26.762Z,87.52
2022-10-22T05:42:26.654Z,87.52
2022-10-22T05:43:26.653Z,87.42
2022-10-22T05:44:26.615Z,87.82
2022-10-22T05:45:26.624Z,87.82
2022-10-22T05:46:26.632Z,88.23
2022-10-22T05:47:26.547Z,88.43
2022-10-22T05:48:26.643Z,88.33
2022-10-22T05:49:26.608Z,88.13
2022-10-22T05:50:26.527Z,88.53
2022-10-22T05:51:26.549Z,89.04
2022-10-22T05:52:26.561Z,88.23
2022-10-22T05:53:26.530Z,88.33
2022-10-22T05:54:26.548Z,88.43
2022-10-22T05:55:26.494Z,87.73
2022-10-22T05:56:26.516Z,88.27
2022-10-22T05:57:26.527Z,88.27
2022-10-22T05:58:26.531Z,88.37
2022-10-22T05:59:26.443Z,88.57
2022-10-22T06:00:26.450Z,88.68
2022-10-22T06:01:26.470Z,89.18
2022-10-22T06:02:26.441Z,89.48
2022-10-22T06:03:26.413Z,89.48
2022-10-22T06:04:26.413Z,89.79
2022-10-22T06:05:26.449Z,90.14
2022-10-22T06:06:26.367Z,90.54
2022-10-22T06:07:26.357Z,91.25
2022-10-22T06:08:26.384Z,91.75
2022-10-22T06:09:26.495Z,92.00
2022-10-22T06:10:26.376Z,92.51
2022-10-22T06:11:28.835Z,92.10
2022-10-22T06:12:26.413Z,92.21
2022-10-22T06:13:26.413Z,92.71
2022-10-22T06:14:26.320Z,92.96
2022-10-22T06:15:26.339Z,92.96
2022-10-22T06:16:26.347Z,93.67
2022-10-22T06:17:26.267Z,93.06
2022-10-22T06:18:26.363Z,92.35
2022-10-22T06:19:26.251Z,92.25
2022-10-22T06:20:26.276Z,92.86
2022-10-22T06:21:26.249Z,92.45
2022-10-22T06:22:26.314Z,93.06
2022-10-22T06:23:26.272Z,92.96
2022-10-22T06:24:26.306Z,93.26
2022-10-22T06:25:26.180Z,93.46
2022-10-22T06:26:26.246Z,93.46
2022-10-22T06:27:26.151Z,92.71
2022-10-22T06:28:26.174Z,92.86
2022-10-22T06:29:26.172Z,93.12
2022-10-22T06:30:26.148Z,92.82
2022-10-22T06:31:26.158Z,92.61
2022-10-22T06:32:26.119Z,92.51
2022-10-22T06:33:26.121Z,92.41
2022-10-22T06:34:26.108Z,92.21
2022-10-22T06:35:26.103Z,92.31
2022-10-22T06:36:26.150Z,92.86
2022-10-22T06:37:26.076Z,92.55
2022-10-22T06:38:26.078Z,92.51
2022-10-22T06:39:26.073Z,92.82
2022-10-22T06:40:26.099Z,93.22
2022-10-22T06:41:28.779Z,92.82
2022-10-22T06:42:26.083Z,92.51
2022-10-22T06:43:26.107Z,92.61
2022-10-22T06:44:26.048Z,92.61
2022-10-22T06:45:26.082Z,92.31
2022-10-22T06:46:25.990Z,92.51
2022-10-22T06:47:25.968Z,91.09
2022-10-22T06:48:25.994Z,90.48
2022-10-22T06:49:25.985Z,90.24
2022-10-22T06:50:26.038Z,91.25
2022-10-22T06:51:26.002Z,91.00
2022-10-22T06:52:25.960Z,89.59
2022-10-22T06:53:25.895Z,89.28
2022-10-22T06:54:25.899Z,88.68
2022-10-22T06:55:25.914Z,88.68
2022-10-22T06:56:25.986Z,87.82
2022-10-22T06:57:25.876Z,87.02
2022-10-22T06:58:25.945Z,87.18
2022-10-22T06:59:25.901Z,87.08
2022-10-22T07:00:26.000Z,87.54
2022-10-22T07:01:25.912Z,85.78
2022-10-22T07:02:25.915Z,84.53
2022-10-22T07:03:25.872Z,83.58
2022-10-22T07:04:25.950Z,82.43
2022-10-22T07:05:25.791Z,81.22
2022-10-22T07:06:25.842Z,80.88
2022-10-22T07:07:25.850Z,81.08
2022-10-22T07:08:25.848Z,80.24
2022-10-22T07:09:25.772Z,78.49
2022-10-22T07:10:28.484Z,78.28
2022-10-22T07:11:25.821Z,76.87
2022-10-22T07:12:25.798Z,77.78
2022-10-22T07:13:25.783Z,78.19
2022-10-22T07:14:25.790Z,77.78
2022-10-22T07:15:25.729Z,77.17
2022-10-22T07:16:29.614Z,76.43
2022-10-22T07:17:25.788Z,77.00
2022-10-22T07:18:25.693Z,75.46
2022-10-22T07:19:25.701Z,74.45
2022-10-22T07:20:25.643Z,73.85
2022-10-22T07:21:25.683Z,74.35
2022-10-22T07:22:25.655Z,74.82
2022-10-22T07:23:25.696Z,75.67
2022-10-22T07:24:25.647Z,77.31
2022-10-22T07:25:25.675Z,77.95
2022-10-22T07:26:25.599Z,79.71
2022-10-22T07:27:25.615Z,78.59
2022-10-22T07:28:25.637Z,80.35
2022-10-22T07:29:25.654Z,80.15
2022-10-22T07:30:25.609Z,80.65
2022-10-22T07:31:25.630Z,80.15
2022-10-22T07:32:25.578Z,80.08
2022-10-22T07:33:25.520Z,81.80
2022-10-22T07:34:25.546Z,81.70
2022-10-22T07:35:25.552Z,81.50
2022-10-22T07:36:25.510Z,81.10
2022-10-22T07:37:25.513Z,81.90
2022-10-22T07:38:25.464Z,81.20
2022-10-22T07:39:25.529Z,81.30
2022-10-22T07:40:25.498Z,82.14
2022-10-22T07:41:25.497Z,82.51
2022-10-22T07:42:25.623Z,81.90
2022-10-22T07:43:25.528Z,81.50
2022-10-22T07:44:25.456Z,81.10
2022-10-22T07:45:25.381Z,81.50
2022-10-22T07:46:25.468Z,81.10
2022-10-22T07:47:25.478Z,82.21
2022-10-22T07:48:25.381Z,80.99
2022-10-22T07:49:25.605Z,80.49
2022-10-22T07:50:25.383Z,80.22
2022-10-22T07:51:25.392Z,80.53
2022-10-22T07:52:25.371Z,81.44
2022-10-22T07:53:25.444Z,80.63
2022-10-22T07:54:25.389Z,80.53
2022-10-22T07:55:25.374Z,80.87
2022-10-22T07:56:25.325Z,81.98
2022-10-22T07:57:25.295Z,81.88
2022-10-22T07:58:25.312Z,82.59
2022-10-22T07:59:25.293Z,82.39
2022-10-22T08:00:25.543Z,82.08
2022-10-22T08:01:25.273Z,82.28
2022-10-22T08:02:25.238Z,82.39
2022-10-22T08:03:25.200Z,81.64
2022-10-22T08:04:25.248Z,82.04
2022-10-22T08:05:25.259Z,81.64
2022-10-22T08:06:25.158Z,80.93
2022-10-22T08:08:28.348Z,80.63
2022-10-22T08:09:25.172Z,80.63
2022-10-22T08:10:25.240Z,80.63
2022-10-22T08:11:25.199Z,80.63
2022-10-22T08:12:25.228Z,80.12
2022-10-22T08:13:25.156Z,80.12
2022-10-22T08:14:25.125Z,80.32
2022-10-22T08:15:25.071Z,80.39
2022-10-22T08:16:25.117Z,81.30
2022-10-22T08:17:25.082Z,81.10
2022-10-22T08:18:25.185Z,80.19
2022-10-22T08:19:25.057Z,79.28
2022-10-22T08:20:25.051Z,79.99
2022-10-22T08:21:25.025Z,78.97
2022-10-22T08:22:25.039Z,79.79
2022-10-22T08:23:27.479Z,79.38
2022-10-22T08:24:25.108Z,79.68
2022-10-22T08:25:24.996Z,80.19
2022-10-22T08:26:25.004Z,79.68
2022-10-22T08:27:25.047Z,79.38
2022-10-22T08:28:24.926Z,79.38
2022-10-22T08:29:25.019Z,79.08
2022-10-22T08:30:24.984Z,79.28
2022-10-22T08:31:24.916Z,78.47
2022-10-22T08:32:24.963Z,78.97
2022-10-22T08:33:24.916Z,79.58
2022-10-22T08:34:24.924Z,79.48
2022-10-22T08:35:24.932Z,79.38
2022-10-22T08:36:25.000Z,79.17
2022-10-22T08:37:24.961Z,78.77
2022-10-22T08:38:24.878Z,78.57
2022-10-22T08:39:24.941Z,78.91
2022-10-22T08:40:24.907Z,79.32
2022-10-22T08:41:24.928Z,79.32
2022-10-22T08:42:24.879Z,79.41
2022-10-22T08:43:24.859Z,79.79
2022-10-22T08:44:24.860Z,79.48
2022-10-22T08:45:24.817Z,79.28
2022-10-22T08:46:24.803Z,78.88
2022-10-22T08:47:24.768Z,79.38
2022-10-22T08:48:24.744Z,78.23
2022-10-22T08:49:24.830Z,78.23
2022-10-22T08:50:24.761Z,78.03
2022-10-22T08:51:24.842Z,77.62
2022-10-22T08:52:24.974Z,77.93
2022-10-22T08:53:24.922Z,78.27
2022-10-22T08:54:24.773Z,78.67
2022-10-22T08:55:24.694Z,78.27
2022-10-22T08:56:24.700Z,78.57
2022-10-22T08:57:24.766Z,78.06
2022-10-22T08:58:24.674Z,77.62
2022-10-22T08:59:24.656Z,77.53
2022-10-22T09:00:24.755Z,77.12
2022-10-22T09:01:24.630Z,77.42
2022-10-22T09:02:24.718Z,77.12
2022-10-22T09:03:24.628Z,77.12
2022-10-22T09:04:24.724Z,77.12
2022-10-22T09:05:24.629Z,77.22
2022-10-22T09:06:24.637Z,77.83
2022-10-22T09:07:24.557Z,78.33
2022-10-22T09:08:24.620Z,77.19
2022-10-22T09:09:24.592Z,77.28
2022-10-22T09:10:24.565Z,77.19
2022-10-22T09:11:24.512Z,77.25
2022-10-22T09:12:24.538Z,75.94
2022-10-22T09:13:24.509Z,75.94
2022-10-22T09:14:24.543Z,74.83
2022-10-22T09:15:24.548Z,74.52
2022-10-22T09:16:24.549Z,75.63
2022-10-22T09:17:24.498Z,74.63
2022-10-22T09:18:24.429Z,74.73
2022-10-22T09:19:24.427Z,75.23
2022-10-22T09:20:24.505Z,74.83
2022-10-22T09:21:24.496Z,75.30
2022-10-22T09:22:24.594Z,74.19
2022-10-22T09:23:24.396Z,74.49
2022-10-22T09:24:24.452Z,74.49
2022-10-22T09:25:24.430Z,74.69
2022-10-22T09:26:24.360Z,74.79
2022-10-22T09:27:24.356Z,74.49
2022-10-22T09:28:24.476Z,74.39
2022-10-22T09:29:24.369Z,74.19
2022-10-22T09:30:24.349Z,74.39
2022-10-22T09:31:24.343Z,74.19
2022-10-22T09:32:24.325Z,74.69
2022-10-22T09:33:24.830Z,74.69
2022-10-22T09:34:24.300Z,74.69
2022-10-22T09:35:24.413Z,74.08
2022-10-22T09:36:24.238Z,74.39
2022-10-22T09:37:24.288Z,73.88
2022-10-22T09:38:24.239Z,73.88
2022-10-22T09:39:24.269Z,73.65
2022-10-22T09:40:24.207Z,73.75
2022-10-22T09:41:24.261Z,73.85
2022-10-22T09:42:24.250Z,73.85
2022-10-22T09:43:24.395Z,73.35
2022-10-22T09:44:24.232Z,73.25
2022-10-22T09:45:24.190Z,73.14
2022-10-22T09:46:24.201Z,73.65
2022-10-22T09:47:32.683Z,74.15
2022-10-22T09:48:24.112Z,73.14
2022-10-22T09:49:24.103Z,73.05
2022-10-22T09:50:24.141Z,73.35
2022-10-22T09:51:24.177Z,73.45
2022-10-22T09:52:24.122Z,74.05
2022-10-22T09:53:24.236Z,73.55
2022-10-22T09:54:24.146Z,74.05
2022-10-22T09:55:24.150Z,73.85
2022-10-22T09:56:24.069Z,73.75
2022-10-22T09:57:24.044Z,73.55
2022-10-22T09:58:24.096Z,73.65
2022-10-22T09:59:24.029Z,73.65
2022-10-22T10:00:24.072Z,73.85
2022-10-22T10:01:24.036Z,74.05
2022-10-22T10:02:37.969Z,73.85
2022-10-22T10:03:24.123Z,74.46
2022-10-22T10:05:23.949Z,73.11
2022-10-22T10:06:23.931Z,73.01
2022-10-22T10:07:23.970Z,72.47
2022-10-22T10:08:23.991Z,72.47
2022-10-22T10:09:24.023Z,72.27
2022-10-22T10:10:23.991Z,71.87
2022-10-22T10:11:28.150Z,71.87
2022-10-22T10:12:23.960Z,72.47
2022-10-22T10:13:23.953Z,72.71
2022-10-22T10:14:23.949Z,72.91
2022-10-22T10:15:23.855Z,73.52
2022-10-22T10:16:23.881Z,73.28
2022-10-22T10:17:23.899Z,72.97
2022-10-22T10:18:23.795Z,72.97
2022-10-22T10:19:23.826Z,72.27
2022-10-22T10:20:23.811Z,71.36
2022-10-22T10:21:23.822Z,71.16
2022-10-22T10:22:23.795Z,71.56
2022-10-22T10:23:25.239Z,71.87
2022-10-22T10:24:23.760Z,72.20
2022-10-22T10:25:23.833Z,72.51
2022-10-22T10:26:23.763Z,73.21
2022-10-22T10:27:23.837Z,73.21
2022-10-22T10:28:23.948Z,73.41
2022-10-22T10:29:23.780Z,72.71
2022-10-22T10:30:23.747Z,72.91
2022-10-22T10:31:23.780Z,72.88
2022-10-22T10:32:24.485Z,72.67
2022-10-22T10:33:23.701Z,72.27
2022-10-22T10:34:23.755Z,71.87
2022-10-22T10:35:23.815Z,71.87
2022-10-22T10:36:23.650Z,71.36
2022-10-22T10:37:23.849Z,71.97
2022-10-22T10:38:26.046Z,72.17
2022-10-22T10:39:23.704Z,72.07
2022-10-22T10:40:23.614Z,71.56
2022-10-22T10:41:23.621Z,71.97
2022-10-22T10:42:23.772Z,72.17
2022-10-22T10:43:23.663Z,73.01
2022-10-22T10:44:23.675Z,72.31
2022-10-22T10:45:23.778Z,72.37
2022-10-22T10:46:23.610Z,72.37
2022-10-22T10:47:23.532Z,73.32
2022-10-22T10:48:23.596Z,72.91
2022-10-22T10:49:23.519Z,72.57
2022-10-22T10:50:23.804Z,72.67
2022-10-22T10:51:23.501Z,72.57
2022-10-22T10:52:23.500Z,72.47
2022-10-22T10:53:23.523Z,72.37
2022-10-22T10:54:23.630Z,72.47
2022-10-22T10:55:23.471Z,72.44
2022-10-22T10:56:23.507Z,72.34
2022-10-22T10:57:23.436Z,72.03
2022-10-22T10:58:23.620Z,72.24
2022-10-22T10:59:23.419Z,72.14
2022-10-22T11:00:23.466Z,71.94
2022-10-22T11:01:23.501Z,71.60
2022-10-22T11:02:23.437Z,71.09
2022-10-22T11:03:23.384Z,71.30
2022-10-22T11:04:23.704Z,71.50
2022-10-22T11:05:23.682Z,71.90
2022-10-22T11:06:25.544Z,71.30
2022-10-22T11:07:34.175Z,71.09
2022-10-22T11:08:23.330Z,71.53
2022-10-22T11:09:23.324Z,71.33
2022-10-22T11:10:23.320Z,71.83
2022-10-22T11:11:23.437Z,72.10
2022-10-22T11:12:23.297Z,71.80
2022-10-22T11:13:23.280Z,71.40
2022-10-22T11:14:25.264Z,71.60
2022-10-22T11:15:23.348Z,71.50
2022-10-22T11:16:23.237Z,71.50
2022-10-22T11:17:23.246Z,72.20
2022-10-22T11:18:23.214Z,71.40
2022-10-22T11:19:46.246Z,71.90
2022-10-22T11:20:23.309Z,70.19
2022-10-22T11:21:23.215Z,70.29
2022-10-22T11:22:26.599Z,71.20
2022-10-22T11:23:23.483Z,70.19
2022-10-22T11:24:23.197Z,70.19
2022-10-22T11:25:23.259Z,70.19
2022-10-22T11:26:23.291Z,70.29
2022-10-22T11:27:23.216Z,70.19
2022-10-22T11:28:23.226Z,70.56
2022-10-22T11:29:23.137Z,69.56
2022-10-22T11:30:23.167Z,70.16
2022-10-22T11:31:23.093Z,70.26
2022-10-22T11:32:23.179Z,70.26
2022-10-22T11:33:23.218Z,70.32
2022-10-22T11:34:35.811Z,70.23
2022-10-22T11:35:25.821Z,70.03
2022-10-22T11:36:23.115Z,69.72
2022-10-22T11:37:23.161Z,69.49
2022-10-22T11:38:23.029Z,69.09
2022-10-22T11:39:23.036Z,68.79
2022-10-22T11:40:23.037Z,68.45
2022-10-22T11:41:22.995Z,68.05
2022-10-22T11:42:23.022Z,68.15
2022-10-22T11:43:23.050Z,67.55
2022-10-22T11:44:23.014Z,68.05
2022-10-22T11:45:23.123Z,68.05
2022-10-22T11:46:23.135Z,67.35
2022-10-22T11:47:23.000Z,67.85
2022-10-22T11:48:23.051Z,67.45
2022-10-22T11:49:23.025Z,67.22
2022-10-22T11:50:22.883Z,67.02
2022-10-22T11:51:23.039Z,66.52
2022-10-22T11:52:23.274Z,65.21
2022-10-22T11:53:22.995Z,64.71
2022-10-22T11:54:22.966Z,65.31
2022-10-22T11:55:22.933Z,65.51
2022-10-22T11:56:22.841Z,65.31
2022-10-22T11:57:22.845Z,64.71
2022-10-22T11:58:23.005Z,64.51
2022-10-22T11:59:22.853Z,64.81
2022-10-22T12:00:22.877Z,64.40
2022-10-22T12:01:23.029Z,64.51
2022-10-22T12:02:23.047Z,64.81
2022-10-22T12:03:22.877Z,64.40
2022-10-22T12:04:22.860Z,64.81
2022-10-22T12:05:22.897Z,64.28
2022-10-22T12:06:22.782Z,63.81
2022-10-22T12:07:22.786Z,64.68
2022-10-22T12:08:22.707Z,64.28
2022-10-22T12:09:22.714Z,63.47
2022-10-22T12:10:22.769Z,63.78
2022-10-22T12:11:22.718Z,63.67
2022-10-22T12:12:22.738Z,63.78
2022-10-22T12:13:22.751Z,63.07
2022-10-22T12:14:22.664Z,63.90
2022-10-22T12:15:22.818Z,64.01
2022-10-22T12:16:32.161Z,63.70
2022-10-22T12:17:22.854Z,64.01
2022-10-22T12:18:22.738Z,63.78
2022-10-22T12:19:22.902Z,63.47
2022-10-22T12:20:22.668Z,63.47
2022-10-22T12:21:22.690Z,63.47
2022-10-22T12:22:22.587Z,63.47
2022-10-22T12:23:22.600Z,63.47
2022-10-22T12:24:45.145Z,63.67
2022-10-22T12:25:23.074Z,63.47
2022-10-22T12:26:23.137Z,63.67
2022-10-22T12:27:23.091Z,63.28
2022-10-22T12:28:25.309Z,63.57
2022-10-22T12:29:23.191Z,63.50
2022-10-22T12:30:22.928Z,63.70
2022-10-22T12:31:24.811Z,64.11
2022-10-22T12:32:22.472Z,64.31
2022-10-22T12:33:22.458Z,64.51
2022-10-22T12:34:22.669Z,64.61
2022-10-22T12:35:23.402Z,64.37
2022-10-22T12:36:22.416Z,63.87
2022-10-22T12:37:22.475Z,63.17
2022-10-22T12:38:22.677Z,63.07
2022-10-22T12:39:22.631Z,62.84
2022-10-22T12:40:22.716Z,63.14
2022-10-22T12:41:22.445Z,63.84
2022-10-22T12:42:23.412Z,62.74
2022-10-22T12:43:24.324Z,62.64
2022-10-22T12:44:23.984Z,62.74
2022-10-22T12:45:22.422Z,62.94
2022-10-22T12:46:23.196Z,63.24
2022-10-22T12:47:22.465Z,62.64
2022-10-22T12:48:22.666Z,62.74
2022-10-22T12:49:22.763Z,62.34
2022-10-22T12:50:24.353Z,61.94
2022-10-22T12:51:22.338Z,62.01
2022-10-22T12:52:22.261Z,61.91
2022-10-22T12:53:24.075Z,61.71
2022-10-22T12:54:22.351Z,62.01
2022-10-22T12:55:22.356Z,61.81